createdAt,value
2023-05-18T00:02:06.096Z,100.00
2023-05-18T00:04:34.713Z,100.00
2023-05-18T00:07:07.160Z,100.00
2023-05-18T00:09:36.472Z,100.00
2023-05-18T00:12:05.320Z,100.00
2023-05-18T00:14:32.275Z,99.52
2023-05-18T00:17:01.909Z,91.78
2023-05-18T00:19:30.201Z,99.77
2023-05-18T00:21:57.750Z,96.90
2023-05-18T00:24:24.848Z,96.16
2023-05-18T00:26:51.748Z,100.00
2023-05-18T00:29:18.588Z,100.00
2023-05-18T00:31:46.015Z,100.00
2023-05-18T00:34:14.578Z,100.00
2023-05-18T00:36:41.512Z,100.00
2023-05-18T00:39:11.600Z,100.00
2023-05-18T00:41:38.853Z,100.00
2023-05-18T00:44:05.867Z,100.00
2023-05-18T00:46:33.392Z,100.00
2023-05-18T00:49:03.667Z,100.00
2023-05-18T00:51:33.270Z,100.00
2023-05-18T00:54:01.748Z,100.00
2023-05-18T00:56:29.235Z,100.00
2023-05-18T00:58:57.408Z,100.00
2023-05-18T01:01:29.027Z,100.00
2023-05-18T01:03:57.847Z,100.00
2023-05-18T01:06:27.326Z,100.00
2023-05-18T01:08:55.370Z,100.00
2023-05-18T01:11:38.263Z,100.00
2023-05-18T01:14:11.658Z,100.00
2023-05-18T01:16:53.814Z,100.00
2023-05-18T01:19:41.914Z,100.00
2023-05-18T01:22:33.667Z,100.00
2023-05-18T01:25:10.697Z,100.00
2023-05-18T01:27:42.402Z,100.00
2023-05-18T01:30:10.218Z,100.00
2023-05-18T01:32:42.727Z,100.00
2023-05-18T01:35:09.885Z,100.00
2023-05-18T01:37:36.647Z,100.00
2023-05-18T01:40:05.805Z,100.00
2023-05-18T01:42:38.038Z,100.00
2023-05-18T01:45:12.206Z,100.00
2023-05-18T01:47:45.224Z,100.00
2023-05-18T01:50:22.650Z,100.00
2023-05-18T01:53:00.762Z,100.00
2023-05-18T01:55:31.190Z,100.00
2023-05-18T01:58:00.581Z,100.00
2023-05-18T02:00:27.674Z,100.00
2023-05-18T02:02:54.549Z,100.00
2023-05-18T02:05:21.497Z,100.00
2023-05-18T02:07:48.345Z,100.00
2023-05-18T02:10:15.284Z,100.00
2023-05-18T02:12:42.105Z,100.00
2023-05-18T02:15:09.266Z,100.00
2023-05-18T02:17:40.030Z,100.00
2023-05-18T02:20:08.333Z,100.00
2023-05-18T02:22:36.207Z,100.00
2023-05-18T02:25:05.171Z,100.00
2023-05-18T02:27:33.865Z,100.00
2023-05-18T02:30:01.116Z,100.00
2023-05-18T02:32:28.128Z,100.00
2023-05-18T02:34:54.959Z,100.00
2023-05-18T02:37:23.323Z,100.00
2023-05-18T02:39:50.363Z,100.00
2023-05-18T02:42:17.144Z,99.36
2023-05-18T02:44:44.040Z,100.00
2023-05-18T02:47:11.153Z,100.00
2023-05-18T02:49:37.918Z,100.00
2023-05-18T02:52:04.952Z,100.00
2023-05-18T02:54:32.271Z,100.00
2023-05-18T02:56:59.049Z,100.00
2023-05-18T02:59:25.853Z,100.00
2023-05-18T03:01:52.700Z,100.00
2023-05-18T03:04:20.118Z,100.00
2023-05-18T03:06:47.450Z,100.00
2023-05-18T03:09:15.881Z,100.00
2023-05-18T03:11:42.700Z,100.00
2023-05-18T03:14:09.514Z,100.00
2023-05-18T03:16:38.933Z,100.00
2023-05-18T03:19:06.009Z,100.00
2023-05-18T03:21:36.403Z,100.00
2023-05-18T03:24:03.830Z,100.00
2023-05-18T03:26:31.212Z,100.00
2023-05-18T03:28:58.969Z,100.00
2023-05-18T03:31:25.924Z,100.00
2023-05-18T03:33:52.833Z,100.00
2023-05-18T03:36:22.633Z,100.00
2023-05-18T03:38:49.514Z,100.00
2023-05-18T03:41:16.631Z,100.00
2023-05-18T03:43:43.431Z,100.00
2023-05-18T03:46:10.795Z,100.00
2023-05-18T03:48:37.662Z,100.00
2023-05-18T03:51:05.193Z,100.00
2023-05-18T03:53:33.892Z,100.00
2023-05-18T03:56:00.838Z,100.00
2023-05-18T03:58:27.709Z,100.00
2023-05-18T04:00:54.599Z,100.00
2023-05-18T04:03:21.811Z,100.00
2023-05-18T04:05:49.854Z,100.00
2023-05-18T04:08:16.697Z,100.00
2023-05-18T04:10:44.636Z,100.00
2023-05-18T04:13:11.669Z,100.00
2023-05-18T04:15:38.774Z,100.00
2023-05-18T04:18:05.924Z,100.00
2023-05-18T04:20:32.797Z,100.00
2023-05-18T04:23:00.259Z,100.00
2023-05-18T04:25:28.398Z,100.00
2023-05-18T04:27:56.296Z,100.00
2023-05-18T04:30:23.749Z,100.00
2023-05-18T04:32:51.403Z,100.00
2023-05-18T04:35:18.745Z,100.00
2023-05-18T04:37:45.653Z,100.00
2023-05-18T04:40:14.041Z,100.00
2023-05-18T04:42:45.846Z,100.00
2023-05-18T04:45:15.953Z,100.00
2023-05-18T04:47:46.968Z,100.00
2023-05-18T04:50:17.715Z,100.00
2023-05-18T04:52:48.806Z,100.00
2023-05-18T04:55:28.987Z,100.00
2023-05-18T04:57:57.424Z,100.00
2023-05-18T05:00:26.354Z,100.00
2023-05-18T05:02:53.783Z,100.00
2023-05-18T05:05:21.526Z,100.00
2023-05-18T05:07:52.566Z,100.00
2023-05-18T05:10:20.921Z,100.00
2023-05-18T05:12:49.711Z,100.00
2023-05-18T05:15:17.211Z,100.00
2023-05-18T05:17:44.102Z,100.00
2023-05-18T05:20:11.427Z,100.00
2023-05-18T05:22:38.407Z,100.00
2023-05-18T05:25:06.314Z,100.00
2023-05-18T05:27:33.487Z,100.00
2023-05-18T05:30:00.362Z,100.00
2023-05-18T05:32:27.272Z,99.80
2023-05-18T05:34:54.192Z,99.88
2023-05-18T05:37:20.950Z,91.68
2023-05-18T05:39:47.891Z,88.93
2023-05-18T05:42:14.845Z,86.13
2023-05-18T05:44:41.617Z,87.23
2023-05-18T05:47:08.974Z,87.29
2023-05-18T05:49:35.852Z,88.71
2023-05-18T05:52:03.131Z,89.21
2023-05-18T05:54:30.594Z,85.37
2023-05-18T05:56:57.411Z,80.77
2023-05-18T05:59:24.247Z,83.24
2023-05-18T06:01:51.728Z,83.85
2023-05-18T06:04:18.693Z,82.70
2023-05-18T06:06:45.659Z,83.17
2023-05-18T06:09:12.431Z,85.44
2023-05-18T06:11:39.258Z,85.35
2023-05-18T06:14:06.119Z,82.87
2023-05-18T06:16:33.048Z,79.66
2023-05-18T06:19:00.320Z,86.00
2023-05-18T06:21:27.197Z,82.52
2023-05-18T06:23:53.944Z,82.49
2023-05-18T06:26:22.271Z,83.52
2023-05-18T06:28:49.589Z,84.03
2023-05-18T06:31:17.131Z,79.29
2023-05-18T06:33:43.961Z,78.24
2023-05-18T06:36:10.746Z,82.72
2023-05-18T06:38:37.599Z,79.32
2023-05-18T06:41:04.343Z,78.67
2023-05-18T06:43:31.051Z,77.94
2023-05-18T06:45:58.140Z,77.74
2023-05-18T06:48:27.217Z,78.90
2023-05-18T06:50:54.487Z,80.98
2023-05-18T06:53:22.739Z,76.58
2023-05-18T06:56:01.847Z,78.27
2023-05-18T06:58:28.675Z,78.40
2023-05-18T07:00:55.417Z,76.71
2023-05-18T07:03:22.237Z,76.35
2023-05-18T07:05:49.014Z,72.79
2023-05-18T07:08:15.951Z,72.79
2023-05-18T07:10:42.820Z,75.67
2023-05-18T07:13:09.613Z,77.27
2023-05-18T07:15:36.500Z,73.93
2023-05-18T07:18:03.780Z,71.90
2023-05-18T07:20:30.858Z,75.01
2023-05-18T07:22:57.607Z,68.74
2023-05-18T07:25:24.988Z,68.15
2023-05-18T07:27:54.685Z,71.77
2023-05-18T07:30:22.595Z,72.08
2023-05-18T07:32:49.516Z,70.28
2023-05-18T07:35:17.186Z,70.45
2023-05-18T07:37:43.994Z,72.25
2023-05-18T07:40:12.981Z,70.71
2023-05-18T07:42:40.867Z,69.70
2023-05-18T07:45:08.253Z,68.84
2023-05-18T07:47:35.103Z,70.51
2023-05-18T07:50:02.291Z,69.20
2023-05-18T07:52:29.268Z,69.37
2023-05-18T07:54:57.606Z,66.18
2023-05-18T07:57:24.972Z,64.63
2023-05-18T07:59:52.272Z,68.10
2023-05-18T08:02:20.198Z,64.08
2023-05-18T08:04:47.927Z,64.53
2023-05-18T08:07:15.201Z,65.49
2023-05-18T08:09:42.104Z,63.70
2023-05-18T08:12:09.213Z,65.84
2023-05-18T08:14:36.033Z,64.18
2023-05-18T08:17:04.836Z,68.06
2023-05-18T08:19:31.882Z,63.06
2023-05-18T08:21:58.752Z,63.60
2023-05-18T08:24:25.625Z,62.70
2023-05-18T08:26:52.740Z,59.05
2023-05-18T08:29:19.634Z,64.29
2023-05-18T08:31:49.193Z,65.65
2023-05-18T08:34:16.790Z,67.22
2023-05-18T08:36:45.944Z,67.27
2023-05-18T08:39:13.079Z,67.16
2023-05-18T08:41:50.702Z,66.91
2023-05-18T08:44:22.428Z,67.99
2023-05-18T08:46:53.011Z,61.79
2023-05-18T08:49:21.838Z,59.55
2023-05-18T08:51:56.747Z,58.61
2023-05-18T08:54:23.913Z,59.92
2023-05-18T08:56:52.782Z,62.00
2023-05-18T08:59:32.622Z,61.93
2023-05-18T09:01:59.580Z,64.34
2023-05-18T09:04:27.315Z,63.57
2023-05-18T09:06:55.317Z,58.28
2023-05-18T09:09:22.678Z,57.89
2023-05-18T09:11:50.551Z,65.43
2023-05-18T09:14:17.346Z,56.46
2023-05-18T09:16:44.148Z,62.90
2023-05-18T09:19:11.337Z,59.90
2023-05-18T09:21:39.042Z,58.65
2023-05-18T09:24:06.312Z,63.07
2023-05-18T09:26:33.542Z,56.31
2023-05-18T09:29:00.339Z,59.77
2023-05-18T09:31:28.067Z,58.80
2023-05-18T09:33:55.002Z,62.71
2023-05-18T09:36:26.629Z,62.31
2023-05-18T09:38:53.596Z,62.15
2023-05-18T09:41:20.479Z,62.03
2023-05-18T09:43:53.443Z,59.32
2023-05-18T09:46:21.228Z,57.31
2023-05-18T09:48:52.225Z,58.02
2023-05-18T09:51:19.378Z,56.35
2023-05-18T09:53:53.404Z,59.25
2023-05-18T09:56:20.223Z,60.23
2023-05-18T09:58:48.024Z,59.03
2023-05-18T10:01:14.862Z,55.52
2023-05-18T10:03:41.925Z,60.44
2023-05-18T10:06:12.978Z,57.73
2023-05-18T10:08:41.022Z,58.89
2023-05-18T10:11:07.922Z,59.91
2023-05-18T10:13:35.159Z,56.63
2023-05-18T10:16:04.206Z,60.38
2023-05-18T10:18:36.431Z,57.45
2023-05-18T10:21:05.939Z,58.24
2023-05-18T10:23:37.536Z,60.81
2023-05-18T10:26:07.621Z,59.78
2023-05-18T10:28:42.275Z,55.91
2023-05-18T10:31:09.639Z,56.44
2023-05-18T10:33:38.224Z,59.04
2023-05-18T10:36:06.469Z,62.20
2023-05-18T10:38:34.531Z,57.03
2023-05-18T10:41:01.807Z,52.42
2023-05-18T10:43:29.083Z,58.19
2023-05-18T10:46:01.105Z,59.59
2023-05-18T10:48:29.824Z,57.39
2023-05-18T10:50:58.270Z,57.76
2023-05-18T10:53:27.179Z,57.59
2023-05-18T10:55:54.537Z,60.93
2023-05-18T10:58:25.219Z,55.23
2023-05-18T11:00:58.063Z,53.55
2023-05-18T11:03:27.190Z,56.67
2023-05-18T11:06:11.617Z,53.28
2023-05-18T11:08:49.060Z,56.41
2023-05-18T11:11:18.938Z,55.12
2023-05-18T11:13:50.856Z,56.71
2023-05-18T11:16:19.288Z,54.55
2023-05-18T11:18:47.027Z,52.64
2023-05-18T11:21:35.729Z,56.92
2023-05-18T11:24:18.673Z,57.91
2023-05-18T11:26:51.787Z,53.28
2023-05-18T11:29:32.701Z,53.64
2023-05-18T11:32:01.183Z,54.90
2023-05-18T11:34:42.403Z,58.29
2023-05-18T11:37:10.695Z,53.98
2023-05-18T11:39:44.940Z,57.42
2023-05-18T11:42:20.557Z,51.93
2023-05-18T11:44:55.934Z,55.58
2023-05-18T11:47:30.574Z,50.22
2023-05-18T11:49:57.746Z,53.24
2023-05-18T11:52:25.924Z,55.46
2023-05-18T11:54:54.555Z,51.45
2023-05-18T11:57:39.445Z,53.46
2023-05-18T12:00:08.205Z,56.30
2023-05-18T12:02:35.687Z,55.43
2023-05-18T12:05:07.141Z,56.22
2023-05-18T12:07:35.650Z,55.69
2023-05-18T12:10:04.845Z,55.08
2023-05-18T12:12:31.832Z,52.73
2023-05-18T12:15:01.115Z,56.03
2023-05-18T12:17:44.756Z,53.98
2023-05-18T12:20:19.543Z,54.72
2023-05-18T12:22:50.485Z,51.57
2023-05-18T12:25:17.433Z,54.82
2023-05-18T12:27:45.722Z,54.00
2023-05-18T12:30:17.331Z,53.90
2023-05-18T12:32:57.754Z,54.01
2023-05-18T12:35:25.988Z,57.90
2023-05-18T12:37:55.663Z,54.60
2023-05-18T12:40:23.583Z,58.00
2023-05-18T12:43:00.935Z,56.29
2023-05-18T12:45:34.989Z,56.97
2023-05-18T12:48:06.281Z,57.08
2023-05-18T12:50:33.186Z,55.50
2023-05-18T12:53:01.984Z,57.62
2023-05-18T12:55:31.252Z,53.16
2023-05-18T12:57:59.503Z,52.98
2023-05-18T13:00:26.602Z,56.74
2023-05-18T13:02:53.589Z,56.94
2023-05-18T13:05:25.502Z,58.25
2023-05-18T13:07:52.784Z,58.57
2023-05-18T13:10:20.566Z,57.64
2023-05-18T13:12:52.743Z,58.15
2023-05-18T13:15:24.064Z,56.41
2023-05-18T13:17:58.407Z,56.84
2023-05-18T13:20:38.800Z,62.54
2023-05-18T13:23:09.176Z,67.47
2023-05-18T13:25:36.479Z,58.53
2023-05-18T13:28:04.447Z,59.97
2023-05-18T13:30:32.322Z,61.78
2023-05-18T13:33:03.014Z,64.42
2023-05-18T13:35:30.182Z,63.87
2023-05-18T13:37:57.270Z,59.25
2023-05-18T13:40:25.765Z,61.61
2023-05-18T13:42:53.356Z,61.93
2023-05-18T13:45:23.222Z,60.52
2023-05-18T13:47:52.336Z,62.07
2023-05-18T13:50:21.081Z,61.34
2023-05-18T13:52:48.007Z,61.02
2023-05-18T13:55:15.428Z,57.60
2023-05-18T13:57:42.187Z,57.00
2023-05-18T14:00:13.285Z,58.95
2023-05-18T14:02:47.402Z,61.57
2023-05-18T14:05:14.757Z,59.80
2023-05-18T14:07:42.774Z,63.63
2023-05-18T14:10:11.773Z,68.35
2023-05-18T14:12:39.359Z,66.78
2023-05-18T14:15:06.810Z,67.22
2023-05-18T14:17:34.811Z,67.73
2023-05-18T14:20:01.859Z,69.43
2023-05-18T14:22:30.595Z,71.10
2023-05-18T14:24:57.626Z,69.80
2023-05-18T14:27:24.722Z,72.10
2023-05-18T14:29:51.590Z,71.52
2023-05-18T14:32:21.129Z,72.14
2023-05-18T14:34:51.690Z,72.52
2023-05-18T14:37:19.196Z,70.75
2023-05-18T14:39:46.041Z,73.53
2023-05-18T14:42:12.839Z,71.20
2023-05-18T14:44:39.653Z,71.97
2023-05-18T14:47:06.876Z,75.44
2023-05-18T14:49:33.822Z,74.12
2023-05-18T14:52:00.693Z,73.49
2023-05-18T14:54:27.579Z,74.21
2023-05-18T14:56:54.490Z,75.29
2023-05-18T14:59:21.708Z,77.07
2023-05-18T15:01:48.735Z,75.49
2023-05-18T15:04:15.669Z,77.30
2023-05-18T15:06:42.623Z,77.04
2023-05-18T15:09:10.156Z,77.90
2023-05-18T15:11:36.994Z,80.35
2023-05-18T15:14:03.900Z,79.46
2023-05-18T15:16:30.735Z,82.17
2023-05-18T15:18:57.644Z,83.61
2023-05-18T15:21:24.549Z,83.24
2023-05-18T15:23:51.498Z,84.23
2023-05-18T15:26:18.301Z,82.73
2023-05-18T15:28:47.271Z,84.93
2023-05-18T15:31:14.286Z,83.09
2023-05-18T15:33:43.802Z,82.54
2023-05-18T15:36:10.965Z,80.09
2023-05-18T15:38:37.933Z,80.41
2023-05-18T15:41:04.866Z,83.68
2023-05-18T15:43:31.792Z,80.47
2023-05-18T15:45:59.033Z,81.14
2023-05-18T15:48:26.115Z,82.04
2023-05-18T15:50:52.945Z,81.88
2023-05-18T15:53:19.835Z,83.38
2023-05-18T15:55:47.004Z,82.18
2023-05-18T15:58:14.893Z,83.41
2023-05-18T16:00:41.751Z,79.77
2023-05-18T16:03:08.879Z,79.76
2023-05-18T16:05:35.946Z,81.31
2023-05-18T16:08:02.746Z,80.91
2023-05-18T16:10:29.962Z,84.04
2023-05-18T16:13:00.587Z,81.85
2023-05-18T16:15:27.556Z,82.61
2023-05-18T16:17:54.843Z,81.54
2023-05-18T16:20:21.825Z,82.09
2023-05-18T16:22:49.440Z,82.03
2023-05-18T16:25:16.283Z,81.69
2023-05-18T16:27:43.448Z,83.24
2023-05-18T16:30:10.737Z,83.46
2023-05-18T16:32:37.601Z,83.56
2023-05-18T16:35:04.941Z,84.67
2023-05-18T16:37:31.818Z,84.20
2023-05-18T16:39:58.677Z,83.04
2023-05-18T16:42:25.979Z,81.83
2023-05-18T16:44:52.859Z,81.98
2023-05-18T16:47:19.643Z,83.06
2023-05-18T16:49:46.478Z,83.42
2023-05-18T16:52:13.343Z,86.91
2023-05-18T16:54:40.317Z,85.00
2023-05-18T16:57:07.462Z,84.31
2023-05-18T16:59:37.135Z,84.70
2023-05-18T17:02:04.094Z,86.30
2023-05-18T17:04:30.997Z,86.39
2023-05-18T17:06:57.877Z,88.78
2023-05-18T17:09:24.715Z,86.68
2023-05-18T17:11:51.580Z,87.50
2023-05-18T17:14:18.713Z,87.69
2023-05-18T17:16:46.215Z,87.91
2023-05-18T17:19:13.752Z,87.63
2023-05-18T17:21:41.539Z,90.03
2023-05-18T17:24:08.541Z,85.29
2023-05-18T17:26:35.360Z,85.46
2023-05-18T17:29:02.423Z,87.68
2023-05-18T17:31:29.401Z,86.72
2023-05-18T17:33:56.398Z,86.62
2023-05-18T17:36:23.354Z,86.82
2023-05-18T17:38:50.283Z,88.19
2023-05-18T17:41:17.316Z,88.04
2023-05-18T17:43:44.187Z,87.91
2023-05-18T17:46:11.138Z,89.72
2023-05-18T17:48:38.033Z,89.64
2023-05-18T17:51:05.263Z,90.01
2023-05-18T17:53:32.173Z,89.91
2023-05-18T17:55:59.077Z,90.04
2023-05-18T17:58:25.984Z,90.33
2023-05-18T18:00:52.806Z,90.59
2023-05-18T18:03:21.134Z,91.54
2023-05-18T18:05:48.048Z,90.13
2023-05-18T18:08:16.344Z,91.50
2023-05-18T18:10:43.278Z,92.46
2023-05-18T18:13:10.115Z,93.78
2023-05-18T18:15:36.999Z,93.79
2023-05-18T18:18:03.966Z,93.52
2023-05-18T18:20:36.677Z,95.59
2023-05-18T18:23:03.895Z,94.82
2023-05-18T18:25:30.712Z,94.99
2023-05-18T18:27:58.382Z,97.81
2023-05-18T18:30:25.564Z,97.68
2023-05-18T18:32:52.421Z,98.00
2023-05-18T18:35:19.396Z,97.58
2023-05-18T18:37:46.269Z,98.17
2023-05-18T18:40:14.601Z,98.15
2023-05-18T18:42:41.505Z,99.50
2023-05-18T18:45:08.673Z,98.00
2023-05-18T18:47:35.887Z,98.58
2023-05-18T18:50:03.558Z,100.00
2023-05-18T18:52:30.476Z,100.00
2023-05-18T18:54:58.465Z,100.00
2023-05-18T18:57:25.458Z,100.00
2023-05-18T18:59:52.911Z,100.00
2023-05-18T19:02:20.909Z,100.00
2023-05-18T19:04:47.768Z,100.00
2023-05-18T19:07:14.661Z,100.00
2023-05-18T19:09:41.735Z,100.00
2023-05-18T19:12:08.986Z,100.00
2023-05-18T19:14:35.919Z,100.00
2023-05-18T19:17:02.742Z,100.00
2023-05-18T19:19:29.848Z,100.00
2023-05-18T19:21:56.785Z,100.00
2023-05-18T19:24:23.585Z,100.00
2023-05-18T19:26:50.513Z,100.00
2023-05-18T19:29:18.520Z,100.00
2023-05-18T19:31:45.444Z,100.00
2023-05-18T19:34:12.387Z,100.00
2023-05-18T19:36:39.346Z,100.00
2023-05-18T19:39:06.304Z,100.00
2023-05-18T19:41:33.201Z,100.00
2023-05-18T19:44:00.047Z,100.00
2023-05-18T19:46:27.439Z,100.00
2023-05-18T19:48:56.484Z,100.00
2023-05-18T19:51:23.838Z,100.00
2023-05-18T19:53:50.713Z,100.00
2023-05-18T19:56:17.646Z,100.00
2023-05-18T19:58:44.506Z,100.00
2023-05-18T20:01:11.348Z,100.00
2023-05-18T20:03:40.178Z,100.00
2023-05-18T20:06:09.334Z,100.00
2023-05-18T20:08:36.373Z,100.00
2023-05-18T20:11:03.236Z,100.00
2023-05-18T20:13:30.817Z,100.00
2023-05-18T20:16:05.818Z,100.00
2023-05-18T20:18:35.101Z,100.00
2023-05-18T20:21:02.320Z,100.00
2023-05-18T20:23:29.179Z,100.00
2023-05-18T20:25:56.379Z,100.00
2023-05-18T20:28:23.251Z,100.00
2023-05-18T20:30:50.163Z,100.00
2023-05-18T20:33:17.820Z,100.00
2023-05-18T20:35:45.497Z,100.00
2023-05-18T20:38:12.792Z,100.00
2023-05-18T20:40:39.955Z,100.00
2023-05-18T20:43:10.054Z,100.00
2023-05-18T20:45:36.979Z,100.00
2023-05-18T20:48:04.786Z,100.00
2023-05-18T20:50:33.801Z,100.00
2023-05-18T20:53:00.994Z,100.00
2023-05-18T20:55:29.117Z,100.00
2023-05-18T20:57:55.941Z,100.00
2023-05-18T21:00:22.762Z,100.00
2023-05-18T21:02:49.615Z,100.00
2023-05-18T21:05:16.754Z,100.00
2023-05-18T21:07:43.952Z,100.00
2023-05-18T21:10:11.781Z,100.00
2023-05-18T21:12:38.998Z,100.00
2023-05-18T21:15:06.414Z,100.00
2023-05-18T21:17:33.413Z,100.00
2023-05-18T21:20:00.717Z,100.00
2023-05-18T21:22:27.842Z,100.00
2023-05-18T21:24:54.689Z,100.00
2023-05-18T21:27:21.518Z,100.00
2023-05-18T21:29:48.364Z,100.00
2023-05-18T21:32:15.274Z,100.00
2023-05-18T21:34:43.793Z,100.00
2023-05-18T21:37:11.016Z,100.00
2023-05-18T21:39:38.100Z,100.00
2023-05-18T21:42:05.234Z,100.00
2023-05-18T21:44:33.158Z,100.00
2023-05-18T21:47:00.058Z,100.00
2023-05-18T21:49:26.918Z,100.00
2023-05-18T21:51:53.860Z,100.00
2023-05-18T21:54:20.784Z,100.00
2023-05-18T21:56:47.714Z,100.00
2023-05-18T21:59:14.546Z,100.00
2023-05-18T22:01:41.517Z,100.00
2023-05-18T22:04:08.522Z,100.00
2023-05-18T22:06:35.843Z,100.00
2023-05-18T22:09:02.669Z,100.00
2023-05-18T22:11:29.581Z,100.00
2023-05-18T22:13:56.468Z,100.00
2023-05-18T22:16:23.346Z,100.00
2023-05-18T22:18:50.268Z,100.00
2023-05-18T22:21:17.181Z,100.00
2023-05-18T22:23:44.054Z,100.00
2023-05-18T22:26:12.328Z,100.00
2023-05-18T22:28:39.320Z,100.00
2023-05-18T22:31:06.706Z,100.00
2023-05-18T22:33:33.664Z,100.00
2023-05-18T22:36:00.588Z,100.00
2023-05-18T22:38:27.933Z,100.00
2023-05-18T22:40:54.868Z,100.00
2023-05-18T22:43:22.236Z,100.00
2023-05-18T22:45:49.851Z,100.00
2023-05-18T22:48:16.747Z,100.00
2023-05-18T22:50:43.633Z,100.00
2023-05-18T22:53:10.574Z,100.00
2023-05-18T22:55:37.636Z,100.00
2023-05-18T22:58:04.695Z,100.00
2023-05-18T23:00:31.769Z,100.00
2023-05-18T23:02:58.948Z,100.00
2023-05-18T23:05:26.882Z,100.00
2023-05-18T23:07:53.742Z,100.00
2023-05-18T23:10:20.632Z,100.00
2023-05-18T23:12:48.562Z,100.00
2023-05-18T23:15:15.630Z,100.00
2023-05-18T23:17:42.593Z,100.00
2023-05-18T23:20:11.558Z,100.00
2023-05-18T23:22:38.394Z,100.00
2023-05-18T23:25:08.899Z,100.00
2023-05-18T23:27:35.998Z,100.00
2023-05-18T23:30:02.977Z,100.00
2023-05-18T23:32:30.208Z,100.00
2023-05-18T23:34:58.744Z,100.00
2023-05-18T23:37:26.376Z,100.00
2023-05-18T23:39:53.427Z,100.00
2023-05-18T23:42:20.996Z,100.00
2023-05-18T23:44:48.637Z,100.00
2023-05-18T23:47:16.693Z,100.00
2023-05-18T23:49:44.679Z,100.00
2023-05-18T23:52:13.785Z,100.00
2023-05-18T23:54:41.281Z,100.00
2023-05-18T23:57:08.639Z,100.00
2023-05-18T23:59:36.470Z,100.00
